Time;durP1;ratioP1;P1;durP2;ratioP2;P2;SDS_P1;SDS_P2;PMS_P1;PMS_P2;Temp;Humidity;BMP_temperature;BMP_pressure;BME280_temperature;BME280_humidity;BME280_pressure;Samples;Min_cycle;Max_cycle;Signal;HPM_P1;HPM_P2
2022/01/02 00:02:28;;;;;;;1.90;0.60;;;8.80;1.00;8.90;94518.00;;;;4970374;28;20190;-81
2022/01/02 00:05:07;;;;;;;1.00;0.63;;;8.60;99.90;8.90;94428.00;;;;4954847;28;20574;-80
2022/01/02 00:08:15;;;;;;;1.02;0.63;;;8.60;1.00;8.90;94348.00;;;;4956009;28;20281;-80
2022/01/02 00:10:53;;;;;;;0.77;0.77;;;8.50;1.00;8.70;94479.00;;;;4955771;28;20219;-81
2022/01/02 00:13:35;;;;;;;2.72;0.80;;;8.40;99.90;9.00;94477.00;;;;4972597;28;20187;-79
2022/01/02 00:16:09;;;;;;;1.67;0.70;;;8.60;99.90;8.90;94451.00;;;;4938466;28;20245;-80
2022/01/02 00:18:51;;;;;;;1.17;0.68;;;8.50;1.00;8.80;94485.00;;;;4954253;28;20666;-81
2022/01/02 00:21:28;;;;;;;0.57;0.57;;;8.40;1.00;8.10;94379.00;;;;4958224;28;20295;-79
2022/01/02 00:24:06;;;;;;;1.45;0.73;;;8.50;99.90;9.40;94468.00;;;;4938527;28;20195;-79
2022/01/02 00:26:44;;;;;;;1.70;0.70;;;8.80;99.90;9.30;94436.00;;;;4953220;28;20199;-79
2022/01/02 00:29:20;;;;;;;0.70;0.70;;;8.80;99.90;9.10;94506.00;;;;4939249;28;20290;-80
2022/01/02 00:31:57;;;;;;;2.05;0.60;;;8.80;99.90;9.50;94491.00;;;;4954434;28;20307;-79
2022/01/02 00:34:33;;;;;;;1.25;0.60;;;8.90;99.90;9.30;94434.00;;;;4953405;28;20186;-81
2022/01/02 00:37:05;;;;;;;2.83;0.68;;;9.00;99.90;8.80;94439.00;;;;4939038;28;20226;-79
2022/01/02 00:39:43;;;;;;;2.70;0.88;;;8.90;99.90;8.80;94368.00;;;;4939511;28;20190;-81
2022/01/02 00:42:34;;;;;;;0.80;0.68;;;8.70;99.90;8.90;94479.00;;;;4952017;28;20198;-81
2022/01/02 00:45:36;;;;;;;0.85;0.60;;;8.50;99.90;8.70;94478.00;;;;4937113;28;20223;-79
2022/01/02 00:48:49;;;;;;;0.60;0.60;;;8.30;99.90;8.70;94477.00;;;;4936654;28;20233;-81
2022/01/02 00:51:49;;;;;;;0.70;0.70;;;8.30;99.90;8.80;94477.00;;;;4970765;28;20214;-79
2022/01/02 00:54:18;;;;;;;1.02;0.88;;;8.30;99.90;8.80;94459.00;;;;4941068;28;20214;-80
2022/01/02 00:56:48;;;;;;;3.53;1.15;;;8.30;99.90;8.70;94491.00;;;;4937779;28;20209;-81
2022/01/02 00:59:28;;;;;;;99.73;50.47;;;8.30;99.90;7.90;94376.00;;;;4962097;28;20725;-79
2022/01/02 01:02:03;;;;;;;2.30;1.00;;;8.20;1.00;8.20;94463.00;;;;4936891;28;20201;-80
2022/01/02 01:04:37;;;;;;;1.52;1.00;;;8.10;1.00;8.00;94483.00;;;;4954523;28;20226;-80
2022/01/02 01:07:07;;;;;;;2.90;1.48;;;7.90;1.00;7.80;94473.00;;;;4937816;28;20222;-81
2022/01/02 01:09:43;;;;;;;0.93;0.75;;;7.70;1.00;7.80;94469.00;;;;4939232;28;20294;-79
2022/01/02 01:12:17;;;;;;;0.40;0.35;;;7.60;1.00;8.10;94394.00;;;;4955158;28;20577;-80
2022/01/02 01:14:46;;;;;;;0.98;0.70;;;7.60;1.00;7.90;94440.00;;;;4940854;28;20199;-79
2022/01/02 01:17:26;;;;;;;0.60;0.50;;;7.60;1.00;7.70;94377.00;;;;4955472;28;20205;-80
2022/01/02 01:20:00;;;;;;;0.65;0.50;;;7.50;1.00;7.80;94396.00;;;;4957126;28;20205;-82
2022/01/02 01:22:34;;;;;;;1.60;0.88;;;7.60;1.00;7.80;94508.00;;;;4955140;28;20692;-80
2022/01/02 01:25:08;;;;;;;1.27;0.60;;;7.60;1.00;8.00;94387.00;;;;4970725;28;20194;-78
2022/01/02 01:27:35;;;;;;;0.80;0.67;;;7.70;1.00;7.80;94282.00;;;;4938652;28;20191;-78
2022/01/02 01:30:07;;;;;;;2.10;0.63;;;7.70;99.90;7.80;94363.00;;;;4953235;28;20200;-79
2022/01/02 01:32:40;;;;;;;1.40;0.60;;;7.60;1.00;7.70;94290.00;;;;4939654;28;20279;-79
2022/01/02 01:35:15;;;;;;;1.33;0.50;;;7.60;1.00;7.60;94202.00;;;;4954429;28;20195;-80
2022/01/02 01:37:49;;;;;;;1.15;0.60;;;7.50;1.00;7.30;94356.00;;;;4958520;28;20274;-79
2022/01/02 01:40:23;;;;;;;0.67;0.67;;;7.40;1.00;7.60;94361.00;;;;4957170;28;20282;-80
2022/01/02 01:43:00;;;;;;;0.60;0.60;;;7.40;1.00;7.50;94434.00;;;;4955687;28;20218;-80
2022/01/02 01:45:33;;;;;;;2.47;0.60;;;7.30;1.00;7.70;94292.00;;;;4961274;28;20189;-79
2022/01/02 01:48:08;;;;;;;1.10;0.43;;;7.40;1.00;7.60;94447.00;;;;4956052;28;20195;-81
2022/01/02 01:50:56;;;;;;;0.60;0.60;;;7.40;1.00;7.70;94348.00;;;;4934490;28;20210;-80
2022/01/02 01:53:26;;;;;;;2.33;0.50;;;7.40;1.00;7.70;94293.00;;;;4954183;28;20199;-81
2022/01/02 01:55:56;;;;;;;0.67;0.60;;;7.40;1.00;7.70;94338.00;;;;4942676;28;20261;-80
2022/01/02 01:58:49;;;;;;;2.83;0.70;;;7.30;1.00;7.50;94384.00;;;;4940952;28;20206;-79
2022/01/02 02:01:17;;;;;;;1.13;0.50;;;7.30;1.00;7.40;94348.00;;;;4920092;29;20199;-78
2022/01/02 02:03:45;;;;;;;1.03;0.70;;;7.20;1.00;7.20;94254.00;;;;4935734;29;20196;-81
2022/01/02 02:06:12;;;;;;;0.70;0.40;;;7.10;1.00;7.20;94322.00;;;;4919584;29;20213;-80
2022/01/02 02:08:50;;;;;;;0.83;0.70;;;7.10;1.00;7.10;94349.00;;;;4935444;29;20283;-80
2022/01/02 02:11:24;;;;;;;0.53;0.53;;;7.00;1.00;7.00;94446.00;;;;4919048;29;20239;-79
2022/01/02 02:13:58;;;;;;;0.53;0.47;;;6.90;1.00;6.80;94383.00;;;;4934804;29;20202;-79
2022/01/02 02:16:35;;;;;;;1.03;0.70;;;6.80;1.00;7.20;94412.00;;;;4920497;29;20257;-78
2022/01/02 02:19:09;;;;;;;1.93;0.70;;;6.90;1.00;7.70;94259.00;;;;4934057;29;20203;-79
2022/01/02 02:21:41;;;;;;;3.50;0.90;;;7.00;1.00;7.50;94417.00;;;;4910078;29;20200;-78
2022/01/02 02:24:14;;;;;;;1.23;0.60;;;7.10;1.00;7.30;94280.00;;;;4917265;29;20203;-80
2022/01/02 02:26:48;;;;;;;1.70;0.77;;;7.00;1.00;7.50;94188.00;;;;4918729;29;20552;-80
2022/01/02 02:29:21;;;;;;;0.80;0.63;;;7.00;1.00;7.90;94290.00;;;;4919501;29;20290;-78
2022/01/02 02:31:55;;;;;;;2.87;0.90;;;7.20;1.00;7.90;94348.00;;;;4917744;29;20215;-79
2022/01/02 02:34:27;;;;;;;0.90;0.80;;;7.30;1.00;7.60;94309.00;;;;4929948;29;20725;-80
2022/01/02 02:37:00;;;;;;;1.30;0.70;;;7.30;99.90;7.30;94355.00;;;;4934194;29;20210;-78
2022/01/02 02:39:36;;;;;;;1.90;0.70;;;7.20;99.90;7.80;94325.00;;;;4932982;29;20761;-81
2022/01/02 02:42:26;;;;;;;0.57;0.40;;;7.20;99.90;8.00;94314.00;;;;4933861;29;20195;-78
2022/01/02 02:48:57;;;;;;;0.53;0.40;;;7.30;99.90;8.10;94313.00;;;;4933752;29;20207;-81
2022/01/02 02:51:29;;;;;;;0.80;0.80;;;7.50;99.90;7.80;94251.00;;;;4929988;29;20219;-80
2022/01/02 02:54:04;;;;;;;1.87;0.57;;;7.60;99.90;8.00;94269.00;;;;4947351;29;20242;-80
2022/01/02 02:56:42;;;;;;;2.80;0.80;;;7.60;99.90;7.90;94368.00;;;;4933462;29;20190;-81
2022/01/02 02:59:13;;;;;;;0.63;0.63;;;7.60;99.90;7.80;94189.00;;;;4931825;29;20635;-81
2022/01/02 03:01:46;;;;;;;0.77;0.68;;;7.50;99.90;7.80;94249.00;;;;4958382;28;20782;-80
2022/01/02 03:04:21;;;;;;;0.98;0.60;;;7.50;99.90;7.50;94378.00;;;;4956489;28;20700;-80
2022/01/02 03:06:55;;;;;;;1.60;0.77;;;7.40;99.90;7.60;94366.00;;;;4956160;28;20199;-80
2022/01/02 03:09:48;;;;;;;0.60;0.60;;;7.30;99.90;7.80;94358.00;;;;4973110;28;20187;-80
2022/01/02 03:12:16;;;;;;;1.03;0.53;;;7.30;99.90;7.70;94245.00;;;;4959179;28;20227;-79
2022/01/02 03:14:49;;;;;;;0.70;0.67;;;7.50;99.90;8.10;94257.00;;;;4942287;28;21665;-81
2022/01/02 03:17:22;;;;;;;0.83;0.40;;;7.50;99.90;7.80;94371.00;;;;4941991;28;20619;-78
2022/01/02 03:19:52;;;;;;;0.73;0.73;;;7.60;99.90;7.70;94230.00;;;;4940545;28;20183;-79
2022/01/02 03:22:22;;;;;;;1.60;0.80;;;7.60;99.90;7.50;94353.00;;;;4957693;28;20213;-80
2022/01/02 03:24:52;;;;;;;1.50;0.60;;;7.40;99.90;7.20;94340.00;;;;4957328;28;20673;-81
2022/01/02 03:27:26;;;;;;;3.10;0.90;;;7.20;99.90;7.00;94358.00;;;;4972626;28;20198;-80
2022/01/02 03:29:59;;;;;;;1.00;0.90;;;7.10;99.90;6.80;94179.00;;;;4938790;28;20216;-81
2022/01/02 03:32:27;;;;;;;1.87;0.90;;;6.90;1.00;6.60;94227.00;;;;4958107;28;20215;-79
2022/01/02 03:34:57;;;;;;;1.67;0.77;;;6.70;1.00;6.70;94287.00;;;;4939763;28;20211;-80
2022/01/02 03:37:33;;;;;;;0.67;0.67;;;6.60;1.00;6.80;94369.00;;;;4958361;28;20221;-79
2022/01/02 03:40:07;;;;;;;0.93;0.70;;;6.60;1.00;7.10;94169.00;;;;4960113;28;20277;-80
2022/01/02 03:42:38;;;;;;;2.27;1.00;;;6.60;1.00;6.90;94218.00;;;;4954483;28;20273;-81
2022/01/02 03:45:11;;;;;;;2.17;0.53;;;6.70;99.90;7.10;94125.00;;;;4942153;28;20198;-81
2022/01/02 03:47:38;;;;;;;0.80;0.70;;;6.70;99.90;7.10;94225.00;;;;4959603;28;20199;-79
2022/01/02 03:50:06;;;;;;;1.03;0.67;;;6.70;99.90;7.10;94183.00;;;;4939795;28;20190;-81
2022/01/02 03:52:36;;;;;;;0.73;0.73;;;6.80;99.90;7.40;94337.00;;;;4957787;28;20211;-80
2022/01/02 03:55:05;;;;;;;1.03;0.80;;;6.90;99.90;7.40;94309.00;;;;4958807;28;20740;-81
2022/01/02 03:57:39;;;;;;;0.47;0.47;;;6.90;99.90;7.60;94189.00;;;;4954501;28;20191;-81
2022/01/02 04:00:10;;;;;;;0.53;0.50;;;7.10;1.00;8.00;94298.00;;;;4957547;28;21379;-80
2022/01/02 04:02:38;;;;;;;1.07;0.50;;;7.30;1.00;7.90;94191.00;;;;4937199;28;20207;-81
2022/01/02 04:05:11;;;;;;;2.60;1.00;;;7.30;1.00;7.60;94303.00;;;;4938367;28;20199;-81
2022/01/02 04:07:39;;;;;;;0.53;0.53;;;7.30;1.00;7.70;94300.00;;;;4958262;28;20674;-81
2022/01/02 04:10:11;;;;;;;1.10;0.80;;;7.30;1.00;7.80;94206.00;;;;4956984;28;20199;-81
2022/01/02 04:12:39;;;;;;;1.42;1.00;;;7.30;1.00;7.70;94296.00;;;;4939413;28;20215;-79
2022/01/02 04:15:10;;;;;;;2.25;0.80;;;7.30;1.00;7.80;94294.00;;;;4941527;28;20203;-80
2022/01/02 04:17:38;;;;;;;0.80;0.80;;;7.30;1.00;7.60;94152.00;;;;4955222;28;20535;-81
2022/01/02 04:20:09;;;;;;;1.33;0.70;;;7.40;1.00;8.30;94283.00;;;;4954572;28;20276;-81
2022/01/02 04:22:37;;;;;;;0.73;0.70;;;7.70;1.00;8.30;94240.00;;;;4972903;28;20207;-81
2022/01/02 04:25:06;;;;;;;1.15;0.90;;;7.80;1.00;8.40;94262.00;;;;4936941;28;20213;-81
2022/01/02 04:27:34;;;;;;;1.00;0.90;;;7.80;99.90;8.60;94243.00;;;;4939333;28;20206;-79
2022/01/02 04:30:04;;;;;;;3.00;0.90;;;8.00;1.00;8.60;94263.00;;;;4970318;28;20199;-79
2022/01/02 04:32:36;;;;;;;1.10;0.82;;;8.00;1.00;8.80;94151.00;;;;4940090;28;20269;-82
2022/01/02 04:35:04;;;;;;;1.88;0.80;;;8.10;99.90;8.90;94276.00;;;;4956145;28;20291;-81
2022/01/02 04:37:32;;;;;;;1.25;0.82;;;8.20;1.00;9.00;94178.00;;;;4954819;28;20294;-79
2022/01/02 04:39:59;;;;;;;1.15;0.88;;;8.30;99.90;8.70;94054.00;;;;4955256;28;21562;-79
2022/01/02 04:42:26;;;;;;;1.05;0.85;;;8.30;99.90;8.90;94223.00;;;;4940068;28;20198;-81
2022/01/02 04:44:53;;;;;;;1.42;1.00;;;8.30;99.90;8.70;94118.00;;;;4955337;28;20295;-80
2022/01/02 04:47:20;;;;;;;0.90;0.80;;;8.50;99.90;9.10;94121.00;;;;4938583;28;20195;-78
2022/01/02 04:49:47;;;;;;;0.88;0.77;;;8.60;1.00;8.90;94282.00;;;;4954359;28;20696;-81
2022/01/02 04:52:14;;;;;;;0.68;0.68;;;8.60;14.20;8.80;94260.00;;;;4953393;28;20250;-78
2022/01/02 04:54:42;;;;;;;1.08;0.98;;;8.50;99.90;8.50;94143.00;;;;4938291;28;20222;-80
2022/01/02 04:57:09;;;;;;;0.80;0.80;;;8.50;99.90;8.70;94262.00;;;;4940066;28;20254;-80
2022/01/02 04:59:38;;;;;;;0.68;0.65;;;8.40;1.00;8.60;94256.00;;;;4940114;28;20205;-80
2022/01/02 05:02:05;;;;;;;0.55;0.55;;;8.30;99.90;8.40;94257.00;;;;4937895;28;20214;-81
2022/01/02 05:04:33;;;;;;;0.98;0.70;;;8.20;99.90;8.50;94148.00;;;;4969509;28;20274;-80
2022/01/02 05:07:00;;;;;;;1.27;0.98;;;8.20;99.90;8.30;94172.00;;;;4935461;28;20545;-81
2022/01/02 05:09:27;;;;;;;1.23;1.00;;;8.20;99.90;8.40;94087.00;;;;4938418;28;20674;-81
2022/01/02 05:11:55;;;;;;;0.90;0.90;;;8.20;99.90;8.20;94253.00;;;;4971734;28;20215;-79
2022/01/02 05:14:22;;;;;;;0.77;0.75;;;8.10;99.90;8.60;94183.00;;;;4943258;28;20199;-79
2022/01/02 05:16:50;;;;;;;0.80;0.80;;;8.10;99.90;8.50;94249.00;;;;4940897;28;20254;-81
2022/01/02 05:19:17;;;;;;;2.13;0.82;;;8.20;99.90;8.20;94068.00;;;;4953730;28;20670;-79
2022/01/02 05:21:44;;;;;;;1.58;1.10;;;8.10;99.90;8.10;94127.00;;;;4940692;28;20211;-81
2022/01/02 05:24:11;;;;;;;1.60;0.98;;;8.20;1.00;8.60;94079.00;;;;4958089;28;20198;-80
2022/01/02 05:26:38;;;;;;;1.00;0.90;;;8.20;99.90;8.10;94110.00;;;;4959348;28;20295;-80
2022/01/02 05:29:06;;;;;;;1.38;0.90;;;8.20;99.90;8.70;94196.00;;;;4940419;28;20207;-79
2022/01/02 05:31:33;;;;;;;1.05;0.95;;;8.20;99.90;8.70;94029.00;;;;4955953;28;20327;-81
2022/01/02 05:34:00;;;;;;;1.13;0.82;;;8.30;99.90;8.30;94216.00;;;;4941127;28;20286;-81
2022/01/02 05:36:33;;;;;;;0.93;0.90;;;8.30;99.90;8.60;94169.00;;;;4959557;28;20975;-79
2022/01/02 05:39:00;;;;;;;1.27;0.95;;;8.20;99.90;8.80;94164.00;;;;4956264;28;20204;-80
2022/01/02 05:41:34;;;;;;;0.85;0.70;;;8.30;99.90;8.70;94135.00;;;;4959884;28;20199;-80
2022/01/02 05:44:01;;;;;;;1.40;0.98;;;8.40;1.40;8.50;94089.00;;;;4955482;28;20201;-79
2022/01/02 05:46:28;;;;;;;1.10;0.80;;;8.30;99.90;8.60;94200.00;;;;4939959;28;20190;-80
2022/01/02 05:48:55;;;;;;;0.82;0.80;;;8.30;99.90;8.60;94221.00;;;;4956936;28;20203;-79
2022/01/02 05:51:22;;;;;;;0.80;0.80;;;8.30;99.90;8.60;94105.00;;;;4955769;28;20195;-80
2022/01/02 05:53:50;;;;;;;1.83;0.95;;;8.30;33.60;8.70;94192.00;;;;4943008;28;20206;-79
2022/01/02 05:56:17;;;;;;;1.48;0.80;;;8.30;99.90;8.90;94246.00;;;;4952846;28;20684;-81
2022/01/02 05:58:44;;;;;;;0.82;0.73;;;8.40;99.90;9.10;94131.00;;;;4939603;28;20257;-79
2022/01/02 06:01:11;;;;;;;1.67;0.75;;;8.50;87.10;9.00;94214.00;;;;4941205;28;20207;-78
2022/01/02 06:03:38;;;;;;;2.92;0.80;;;8.50;99.90;8.90;94236.00;;;;4940003;28;20223;-81
2022/01/02 06:06:08;;;;;;;1.02;0.80;;;8.50;99.90;9.30;94183.00;;;;4941074;28;20191;-78
2022/01/02 06:08:36;;;;;;;1.58;0.93;;;8.70;1.00;9.30;94151.00;;;;4955432;28;20246;-80
2022/01/02 06:11:03;;;;;;;1.00;0.90;;;8.80;1.00;9.20;94085.00;;;;4939110;28;20750;-81
2022/01/02 06:13:30;;;;;;;3.17;0.90;;;8.80;1.00;8.70;94200.00;;;;4938978;28;20223;-77
2022/01/02 06:15:58;;;;;;;1.60;1.00;;;8.80;99.90;8.50;94231.00;;;;4939800;28;20290;-81
2022/01/02 06:18:25;;;;;;;1.10;0.90;;;8.70;99.90;9.10;94187.00;;;;4955970;28;20199;-78
2022/01/02 06:20:52;;;;;;;0.98;0.77;;;8.80;99.90;9.30;94170.00;;;;4956789;28;20362;-80
2022/01/02 06:23:20;;;;;;;0.77;0.77;;;8.80;99.90;9.10;94270.00;;;;4953651;28;20199;-80
2022/01/02 06:25:47;;;;;;;1.35;0.98;;;8.70;99.90;9.00;94110.00;;;;4940272;28;20642;-80
2022/01/02 06:28:14;;;;;;;0.80;0.80;;;8.70;99.90;9.30;94077.00;;;;4940292;28;20572;-82
2022/01/02 06:30:41;;;;;;;1.08;0.98;;;8.70;1.00;9.10;94160.00;;;;4941099;28;20656;-81
2022/01/02 06:33:09;;;;;;;1.38;0.90;;;8.80;99.90;9.00;94218.00;;;;4937689;28;20218;-82
2022/01/02 06:35:36;;;;;;;0.65;0.65;;;8.70;99.90;8.70;94223.00;;;;4939598;28;20218;-81
2022/01/02 06:38:23;;;;;;;0.75;0.75;;;8.60;99.90;8.70;94185.00;;;;4938248;28;20226;-82
2022/01/02 06:40:51;;;;;;;1.00;0.90;;;8.50;99.90;8.60;94200.00;;;;4944535;28;20190;-80
2022/01/02 06:43:18;;;;;;;0.82;0.75;;;8.40;99.90;8.50;94186.00;;;;4940338;28;20206;-78
2022/01/02 06:45:45;;;;;;;2.10;0.90;;;8.30;99.90;8.30;94196.00;;;;4941573;28;20581;-81
2022/01/02 06:48:13;;;;;;;1.23;0.70;;;8.20;99.90;8.40;94010.00;;;;4954218;28;20199;-78
2022/01/02 06:50:40;;;;;;;0.85;0.80;;;8.10;99.90;9.10;94223.00;;;;4940910;28;20574;-79
2022/01/02 06:53:08;;;;;;;0.82;0.80;;;8.30;32.20;8.80;94158.00;;;;4956764;28;20875;-80
2022/01/02 06:55:36;;;;;;;1.02;0.75;;;8.40;99.90;8.70;93987.00;;;;4955325;28;20321;-78
2022/01/02 06:58:06;;;;;;;2.60;0.80;;;8.40;99.90;8.70;94192.00;;;;4952918;28;20626;-79
2022/01/02 07:00:34;;;;;;;1.30;0.90;;;8.30;24.20;8.70;94192.00;;;;4938393;28;20701;-79
2022/01/02 07:03:01;;;;;;;1.42;0.95;;;8.30;99.90;8.70;94063.00;;;;4954769;28;20677;-78
2022/01/02 07:05:29;;;;;;;1.30;1.00;;;8.30;99.90;8.70;94124.00;;;;4955474;28;20210;-79
2022/01/02 07:07:56;;;;;;;2.60;0.90;;;8.40;78.50;8.80;94079.00;;;;4939267;28;20314;-80
2022/01/02 07:10:28;;;;;;;0.90;0.68;;;8.40;99.90;8.90;94105.00;;;;4970100;28;20752;-80
2022/01/02 07:12:56;;;;;;;2.92;0.80;;;8.40;99.90;9.00;94172.00;;;;4956364;28;20223;-80
2022/01/02 07:15:26;;;;;;;1.67;1.00;;;8.40;99.90;8.80;94136.00;;;;4938933;28;20227;-79
2022/01/02 07:17:53;;;;;;;1.08;0.77;;;8.40;99.90;8.80;94140.00;;;;4953981;28;20218;-80
2022/01/02 07:20:20;;;;;;;0.70;0.70;;;8.40;1.00;8.80;94162.00;;;;4949626;28;20657;-80
2022/01/02 07:22:48;;;;;;;2.05;0.80;;;8.50;99.90;8.90;94156.00;;;;4939721;28;20250;-80
2022/01/02 07:25:15;;;;;;;1.33;0.80;;;8.50;99.90;9.00;94146.00;;;;4938782;28;20792;-79
2022/01/02 07:27:42;;;;;;;0.95;0.88;;;8.50;12.10;9.20;94115.00;;;;4953395;28;20662;-80
2022/01/02 07:30:10;;;;;;;1.80;0.77;;;8.60;47.00;8.40;94053.00;;;;4939087;28;20326;-81
2022/01/02 07:32:39;;;;;;;0.75;0.70;;;8.60;99.90;8.80;94162.00;;;;4955777;28;20234;-81
2022/01/02 07:35:07;;;;;;;3.03;0.88;;;8.60;99.90;9.10;94134.00;;;;4953157;28;20192;-80
2022/01/02 07:37:35;;;;;;;2.97;0.80;;;8.60;99.90;9.10;94047.00;;;;4955882;28;20218;-80
2022/01/02 07:40:05;;;;;;;1.00;0.80;;;8.60;38.00;8.90;94177.00;;;;4936422;28;20285;-78
2022/01/02 07:42:36;;;;;;;1.05;0.80;;;8.60;99.90;8.60;94044.00;;;;4953789;28;21038;-81
2022/01/02 07:45:04;;;;;;;0.80;0.80;;;8.50;99.90;8.70;94124.00;;;;4954892;28;20191;-81
2022/01/02 07:47:32;;;;;;;0.85;0.77;;;8.40;99.90;8.60;94145.00;;;;4936530;28;20253;-81
2022/01/02 07:49:59;;;;;;;1.15;0.75;;;8.30;1.00;8.70;94135.00;;;;4949804;28;20670;-82
2022/01/02 07:52:26;;;;;;;2.35;0.77;;;8.30;33.80;8.80;94186.00;;;;4970913;28;20222;-79
2022/01/02 07:54:59;;;;;;;0.70;0.70;;;8.40;99.90;8.90;94168.00;;;;4953465;28;20191;-80
2022/01/02 07:57:44;;;;;;;2.70;0.80;;;8.40;99.90;8.80;93838.00;;;;4969604;28;20989;-79
2022/01/02 08:00:59;;;;;;;0.80;0.80;;;8.50;48.10;9.00;94146.00;;;;4937512;28;20194;-79
2022/01/02 08:04:02;;;;;;;1.20;0.70;;;8.40;99.90;8.90;94160.00;;;;4951934;28;20200;-81
2022/01/02 08:06:32;;;;;;;0.80;0.77;;;8.50;99.90;8.90;94170.00;;;;4937780;28;20217;-80
2022/01/02 08:09:03;;;;;;;1.27;0.80;;;8.60;99.90;9.20;94060.00;;;;4954474;28;20294;-79
2022/01/02 08:11:33;;;;;;;1.02;0.80;;;8.70;99.90;9.20;94070.00;;;;4953600;28;20206;-80
2022/01/02 08:14:18;;;;;;;1.75;0.80;;;8.70;99.90;8.80;94073.00;;;;4940376;28;20677;-80
2022/01/02 08:16:51;;;;;;;1.30;1.02;;;8.80;99.90;9.60;94053.00;;;;4938613;28;20273;-81
2022/01/02 08:19:18;;;;;;;0.80;0.80;;;9.00;1.00;10.40;94156.00;;;;4937546;28;20215;-80
2022/01/02 08:21:45;;;;;;;1.67;0.82;;;9.30;1.00;9.80;94023.00;;;;4969353;28;20203;-80
2022/01/02 08:24:19;;;;;;;2.15;0.88;;;9.70;1.00;10.70;94020.00;;;;4936636;28;20281;-80
2022/01/02 08:26:46;;;;;;;0.95;0.85;;;9.90;1.00;10.80;93928.00;;;;4939044;28;20722;-80
2022/01/02 08:29:20;;;;;;;1.33;0.80;;;10.00;1.00;11.10;94035.00;;;;4952083;28;20191;-78
2022/01/02 08:31:47;;;;;;;1.27;0.80;;;10.30;99.90;11.10;94009.00;;;;4936526;28;20203;-80
2022/01/02 08:34:14;;;;;;;2.30;0.90;;;10.40;99.90;10.90;94095.00;;;;4953601;28;20230;-80
2022/01/02 08:36:41;;;;;;;2.10;0.70;;;10.50;1.00;11.10;94064.00;;;;4951925;28;20226;-79
2022/01/02 08:39:08;;;;;;;1.15;0.90;;;10.60;99.90;11.20;94134.00;;;;4937641;28;20191;-81
2022/01/02 08:41:35;;;;;;;1.55;0.77;;;10.70;99.90;11.30;94090.00;;;;4954006;28;20210;-78
2022/01/02 08:44:06;;;;;;;1.30;0.82;;;10.80;99.90;11.40;94002.00;;;;4938325;28;20698;-79
2022/01/02 08:46:36;;;;;;;1.40;0.77;;;10.90;99.90;11.40;93933.00;;;;4938127;28;20900;-80
2022/01/02 08:49:04;;;;;;;2.70;1.25;;;11.10;99.90;12.10;94145.00;;;;4954635;28;21232;-79
2022/01/02 08:51:32;;;;;;;1.65;0.70;;;11.30;99.90;12.20;94117.00;;;;4941510;28;20608;-86
2022/01/02 08:53:59;;;;;;;0.80;0.65;;;11.60;99.90;12.00;94098.00;;;;4939487;28;20223;-80
2022/01/02 08:56:26;;;;;;;0.98;0.80;;;11.80;99.90;12.50;94132.00;;;;4955281;28;20230;-80
2022/01/02 08:58:53;;;;;;;1.38;0.93;;;12.00;99.90;12.50;94025.00;;;;4937178;28;20187;-81
2022/01/02 09:01:20;;;;;;;1.15;1.00;;;12.10;99.90;12.80;94100.00;;;;4955533;28;20215;-81
2022/01/02 09:03:51;;;;;;;1.05;0.90;;;12.40;99.90;13.10;94034.00;;;;4942276;28;20194;-83
2022/01/02 09:06:18;;;;;;;1.65;1.20;;;12.60;99.90;13.20;94081.00;;;;4971064;28;20794;-81
2022/01/02 09:08:48;;;;;;;2.70;2.50;;;12.70;99.90;13.30;94083.00;;;;4954565;28;20203;-80
2022/01/02 09:11:15;;;;;;;2.00;1.48;;;12.90;99.90;13.60;94058.00;;;;4956491;28;20207;-79
2022/01/02 09:13:42;;;;;;;2.28;1.55;;;13.10;99.90;13.70;94027.00;;;;4959294;28;20238;-79
2022/01/02 09:16:09;;;;;;;1.63;0.93;;;13.30;99.90;13.70;94092.00;;;;4939471;28;20179;-79
2022/01/02 09:18:37;;;;;;;1.00;0.90;;;13.50;93.40;14.00;94094.00;;;;4954103;28;20191;-79
2022/01/02 09:21:04;;;;;;;0.93;0.70;;;13.70;82.90;13.50;94097.00;;;;4937692;28;20666;-80
2022/01/02 09:23:31;;;;;;;0.68;0.68;;;14.00;69.00;14.00;94047.00;;;;4958058;28;20202;-84
2022/01/02 09:25:58;;;;;;;0.77;0.77;;;14.30;55.60;14.10;94098.00;;;;4959536;28;20199;-84
2022/01/02 09:28:26;;;;;;;1.25;1.00;;;14.40;37.50;14.00;94162.00;;;;4943584;28;20291;-80
2022/01/02 09:30:54;;;;;;;0.80;0.80;;;14.30;38.00;14.00;94056.00;;;;4953635;28;20289;-80
2022/01/02 09:33:22;;;;;;;2.45;0.90;;;14.10;39.30;13.80;94122.00;;;;4970992;28;20618;-79
2022/01/02 09:35:50;;;;;;;0.90;0.75;;;14.00;40.30;13.90;94194.00;;;;4941625;28;20219;-80
2022/01/02 09:38:17;;;;;;;3.50;0.80;;;13.90;58.10;13.90;94058.00;;;;4970142;28;20218;-81
2022/01/02 09:40:46;;;;;;;0.77;0.77;;;13.80;62.30;14.10;94141.00;;;;4940075;28;20282;-80
2022/01/02 09:43:19;;;;;;;0.93;0.80;;;13.90;47.60;13.90;94204.00;;;;4938787;28;20562;-79
2022/01/02 09:45:48;;;;;;;0.75;0.75;;;13.90;48.90;14.10;94149.00;;;;4971691;28;20717;-80
2022/01/02 09:48:16;;;;;;;1.30;0.77;;;13.80;47.50;14.00;94095.00;;;;4970647;28;20195;-80
2022/01/02 09:50:47;;;;;;;2.80;1.40;;;13.80;52.80;13.80;94167.00;;;;4940883;28;20198;-80
2022/01/02 09:53:16;;;;;;;0.80;0.80;;;13.80;64.20;13.90;94117.00;;;;4939933;28;20242;-80
2022/01/02 09:55:46;;;;;;;1.17;0.95;;;13.70;56.70;13.70;94083.00;;;;4953188;28;20684;-80
2022/01/02 09:58:15;;;;;;;0.50;0.50;;;13.60;55.80;12.70;94095.00;;;;4957663;28;20339;-81
2022/01/02 10:00:46;;;;;;;1.17;0.95;;;13.60;57.10;13.80;94100.00;;;;4940118;28;20199;-80
2022/01/02 10:03:14;;;;;;;1.45;1.02;;;13.50;67.60;13.80;94093.00;;;;4940469;28;20194;-79
2022/01/02 10:06:01;;;;;;;1.13;1.02;;;13.50;72.80;13.50;94133.00;;;;4939731;28;20198;-80
2022/01/02 10:08:35;;;;;;;0.80;0.80;;;13.40;86.60;13.50;94168.00;;;;4944100;28;20203;-81
2022/01/02 10:11:15;;;;;;;0.68;0.68;;;13.40;99.90;12.80;94161.00;;;;4956031;28;20336;-80
2022/01/02 10:14:01;;;;;;;4.32;3.50;;;13.30;99.90;13.70;94096.00;;;;4941575;28;20306;-79
2022/01/02 10:16:43;;;;;;;1.38;0.90;;;13.20;99.90;13.80;94176.00;;;;4954431;28;20295;-79
2022/01/02 10:19:32;;;;;;;1.42;0.88;;;13.30;99.90;13.60;94115.00;;;;4953482;28;20210;-80
2022/01/02 10:22:05;;;;;;;1.25;0.80;;;13.30;99.90;13.60;94115.00;;;;4956013;28;20290;-79
2022/01/02 10:24:42;;;;;;;0.93;0.60;;;13.40;99.90;13.60;94095.00;;;;4953986;28;20206;-82
2022/01/02 10:27:19;;;;;;;0.70;0.70;;;13.40;99.90;14.10;94115.00;;;;4939509;28;20830;-79
2022/01/02 10:29:58;;;;;;;1.38;0.80;;;13.60;99.90;14.30;94020.00;;;;4957581;28;20688;-81
2022/01/02 10:32:41;;;;;;;1.13;0.90;;;13.80;99.90;14.60;94072.00;;;;4953682;28;20297;-80
2022/01/02 10:35:22;;;;;;;1.00;0.90;;;14.10;99.90;14.90;94083.00;;;;4937848;28;20191;-79
2022/01/02 10:37:55;;;;;;;1.38;0.90;;;14.40;72.30;15.10;94107.00;;;;4939643;28;20195;-80
2022/01/02 10:40:34;;;;;;;0.65;0.65;;;14.80;39.30;15.10;94092.00;;;;4939739;28;20674;-80
2022/01/02 10:43:08;;;;;;;1.20;0.88;;;14.90;35.00;15.00;94138.00;;;;4970301;28;20194;-79
2022/01/02 10:45:43;;;;;;;1.42;0.70;;;14.80;36.30;14.40;94003.00;;;;4942166;28;20201;-82
2022/01/02 10:48:14;;;;;;;3.15;2.42;;;14.70;40.60;14.60;94144.00;;;;4955248;28;20206;-79
2022/01/02 10:51:02;;;;;;;4.40;2.83;;;14.50;36.20;14.50;94160.00;;;;4958435;28;20204;-81
2022/01/02 10:53:31;;;;;;;2.05;1.70;;;14.40;31.30;14.40;94087.00;;;;4954761;28;20700;-79
2022/01/02 10:56:00;;;;;;;50.92;44.47;;;14.30;49.80;14.50;94053.00;;;;4956390;28;20202;-79
2022/01/02 10:58:33;;;;;;;2.05;1.10;;;14.20;43.40;14.10;94081.00;;;;4954944;28;20195;-80
2022/01/02 11:01:06;;;;;;;1.95;1.02;;;14.20;48.60;14.30;94103.00;;;;4938764;28;20242;-80
2022/01/02 11:03:34;;;;;;;0.73;0.65;;;14.10;60.20;13.90;94023.00;;;;4977324;28;20658;-81
2022/01/02 11:06:08;;;;;;;0.95;0.70;;;14.00;56.80;13.90;94146.00;;;;4957223;28;20609;-80
2022/01/02 11:08:43;;;;;;;1.45;0.90;;;14.00;64.50;14.10;94162.00;;;;4957659;28;20278;-81
2022/01/02 11:11:10;;;;;;;1.13;0.80;;;14.10;83.80;13.70;94002.00;;;;4924544;28;20190;-80
2022/01/02 11:13:42;;;;;;;0.80;0.80;;;14.20;52.70;13.90;94131.00;;;;4928473;28;20215;-81
2022/01/02 11:16:09;;;;;;;1.25;0.88;;;14.20;67.40;14.20;94134.00;;;;4929549;28;20210;-79
2022/01/02 11:18:38;;;;;;;1.17;0.88;;;14.10;75.90;14.00;94019.00;;;;4940847;29;20636;-81
2022/01/02 11:21:11;;;;;;;1.88;1.00;;;14.10;83.30;14.50;94097.00;;;;4959086;28;20195;-81
2022/01/02 11:24:24;;;;;;;1.08;0.98;;;14.30;95.30;14.40;94131.00;;;;4959233;28;20255;-83
2022/01/02 11:27:11;;;;;;;1.17;0.80;;;14.70;99.90;14.10;94046.00;;;;4960981;28;20190;-81
2022/01/02 11:29:39;;;;;;;2.05;1.45;;;14.70;99.90;13.40;94004.00;;;;4934600;28;20199;-81
2022/01/02 11:32:30;;;;;;;0.73;0.73;;;14.40;99.90;13.40;94108.00;;;;4949052;28;20200;-81
2022/01/02 11:34:57;;;;;;;0.90;0.80;;;14.00;99.90;13.10;94168.00;;;;4945222;28;20278;-86